Isabel, Texas
Current Conditions -  °F | °C
As of 4:53 PM on Saturday 20 Dec 2014 (Local Time) from KPIL Reporting Station
Haze Haze  
Wind Chill: 57°   Ceiling: 1000
Heat Index: 57°   Visibility: 6mi
Dew Point: 53°   Wind: 16mph
Humidity: 87%   Direction: 360°N
Pressure: 30.1"   Gusts: NA
Location:  26.0776°N, 97.3389°W
Report Text: KPIL 202253Z AUTO 36014KT 6SM BR OVC010 14/12 A3010 RMK AO2 SLP193 T01390117
Loading
Personal Weather Stations






























Interactive Weather Map New forecast layout! Learn more

10-Day Weather Forecast

Advertisements
Track Severe Weather on mobile